sensor_id;sensor_type;location;lat;lon;timestamp;P1;durP1;ratioP1;P2;durP2;ratioP2
8361;SDS011;4218;48.326;14.304;2023-07-02T00:01:42;47.87;;;45.63;;
8361;SDS011;4218;48.326;14.304;2023-07-02T00:04:07;38.90;;;37.17;;
8361;SDS011;4218;48.326;14.304;2023-07-02T00:06:34;42.00;;;40.00;;
8361;SDS011;4218;48.326;14.304;2023-07-02T00:09:05;29.20;;;27.90;;
8361;SDS011;4218;48.326;14.304;2023-07-02T00:11:32;45.30;;;43.13;;
8361;SDS011;4218;48.326;14.304;2023-07-02T00:13:57;56.30;;;53.73;;
8361;SDS011;4218;48.326;14.304;2023-07-02T00:16:23;54.93;;;52.43;;
8361;SDS011;4218;48.326;14.304;2023-07-02T00:18:48;44.00;;;41.90;;
8361;SDS011;4218;48.326;14.304;2023-07-02T00:21:17;51.90;;;49.50;;
8361;SDS011;4218;48.326;14.304;2023-07-02T00:23:44;47.93;;;45.63;;
8361;SDS011;4218;48.326;14.304;2023-07-02T00:26:09;59.17;;;56.47;;
8361;SDS011;4218;48.326;14.304;2023-07-02T00:28:34;54.00;;;51.50;;
8361;SDS011;4218;48.326;14.304;2023-07-02T00:30:59;46.50;;;44.37;;
8361;SDS011;4218;48.326;14.304;2023-07-02T00:33:26;68.87;;;65.67;;
8361;SDS011;4218;48.326;14.304;2023-07-02T00:35:51;86.67;;;82.73;;
8361;SDS011;4218;48.326;14.304;2023-07-02T00:38:16;80.80;;;77.03;;
8361;SDS011;4218;48.326;14.304;2023-07-02T00:40:41;78.37;;;74.70;;
8361;SDS011;4218;48.326;14.304;2023-07-02T00:43:07;67.20;;;64.10;;
8361;SDS011;4218;48.326;14.304;2023-07-02T00:45:37;39.33;;;37.47;;
8361;SDS011;4218;48.326;14.304;2023-07-02T00:48:03;56.10;;;53.57;;
8361;SDS011;4218;48.326;14.304;2023-07-02T00:50:28;39.47;;;37.67;;
8361;SDS011;4218;48.326;14.304;2023-07-02T00:52:53;40.87;;;38.93;;
8361;SDS011;4218;48.326;14.304;2023-07-02T00:55:19;49.37;;;47.13;;
8361;SDS011;4218;48.326;14.304;2023-07-02T00:57:45;58.10;;;55.43;;
8361;SDS011;4218;48.326;14.304;2023-07-02T01:00:11;75.10;;;71.73;;
8361;SDS011;4218;48.326;14.304;2023-07-02T01:02:36;61.23;;;58.40;;
8361;SDS011;4218;48.326;14.304;2023-07-02T01:05:03;48.13;;;45.90;;
8361;SDS011;4218;48.326;14.304;2023-07-02T01:07:29;65.40;;;62.37;;
8361;SDS011;4218;48.326;14.304;2023-07-02T01:09:54;56.40;;;53.83;;
8361;SDS011;4218;48.326;14.304;2023-07-02T01:12:19;47.87;;;45.53;;
8361;SDS011;4218;48.326;14.304;2023-07-02T01:14:56;41.37;;;39.50;;
8361;SDS011;4218;48.326;14.304;2023-07-02T01:17:23;57.77;;;55.13;;
8361;SDS011;4218;48.326;14.304;2023-07-02T01:19:49;53.13;;;50.77;;
8361;SDS011;4218;48.326;14.304;2023-07-02T01:22:17;44.90;;;42.83;;
8361;SDS011;4218;48.326;14.304;2023-07-02T01:24:42;65.17;;;62.13;;
8361;SDS011;4218;48.326;14.304;2023-07-02T01:27:07;86.40;;;82.43;;
8361;SDS011;4218;48.326;14.304;2023-07-02T01:29:34;99.43;;;94.90;;
8361;SDS011;4218;48.326;14.304;2023-07-02T01:32:01;54.13;;;51.67;;
8361;SDS011;4218;48.326;14.304;2023-07-02T01:34:27;53.40;;;51.00;;
8361;SDS011;4218;48.326;14.304;2023-07-02T01:36:53;59.63;;;56.90;;
8361;SDS011;4218;48.326;14.304;2023-07-02T01:39:18;62.57;;;59.70;;
8361;SDS011;4218;48.326;14.304;2023-07-02T01:44:10;40.70;;;38.80;;
8361;SDS011;4218;48.326;14.304;2023-07-02T01:46:36;38.80;;;37.07;;
8361;SDS011;4218;48.326;14.304;2023-07-02T01:49:01;42.20;;;40.20;;
8361;SDS011;4218;48.326;14.304;2023-07-02T01:51:27;67.37;;;64.20;;
8361;SDS011;4218;48.326;14.304;2023-07-02T01:53:52;47.70;;;45.53;;
8361;SDS011;4218;48.326;14.304;2023-07-02T01:56:17;62.00;;;59.20;;
8361;SDS011;4218;48.326;14.304;2023-07-02T01:58:42;43.00;;;41.03;;
8361;SDS011;4218;48.326;14.304;2023-07-02T02:01:08;29.43;;;28.13;;
8361;SDS011;4218;48.326;14.304;2023-07-02T02:03:33;36.43;;;34.73;;
8361;SDS011;4218;48.326;14.304;2023-07-02T02:05:58;27.50;;;26.13;;
8361;SDS011;4218;48.326;14.304;2023-07-02T02:08:23;24.47;;;23.27;;
8361;SDS011;4218;48.326;14.304;2023-07-02T02:10:48;31.50;;;29.73;;
8361;SDS011;4218;48.326;14.304;2023-07-02T02:13:14;26.97;;;25.77;;
8361;SDS011;4218;48.326;14.304;2023-07-02T02:15:39;24.63;;;23.53;;
8361;SDS011;4218;48.326;14.304;2023-07-02T02:18:05;23.97;;;22.87;;
8361;SDS011;4218;48.326;14.304;2023-07-02T02:20:31;23.33;;;22.23;;
8361;SDS011;4218;48.326;14.304;2023-07-02T02:22:56;37.10;;;35.40;;
8361;SDS011;4218;48.326;14.304;2023-07-02T02:25:21;41.03;;;39.23;;
8361;SDS011;4218;48.326;14.304;2023-07-02T02:27:46;44.63;;;42.60;;
8361;SDS011;4218;48.326;14.304;2023-07-02T02:30:12;45.73;;;43.60;;
8361;SDS011;4218;48.326;14.304;2023-07-02T02:32:38;45.63;;;43.50;;
8361;SDS011;4218;48.326;14.304;2023-07-02T02:35:03;38.17;;;36.47;;
8361;SDS011;4218;48.326;14.304;2023-07-02T02:37:29;43.33;;;41.30;;
8361;SDS011;4218;48.326;14.304;2023-07-02T02:39:55;42.77;;;40.83;;
8361;SDS011;4218;48.326;14.304;2023-07-02T02:42:22;27.77;;;26.20;;
8361;SDS011;4218;48.326;14.304;2023-07-02T02:44:47;22.33;;;21.33;;
8361;SDS011;4218;48.326;14.304;2023-07-02T02:47:12;23.17;;;22.03;;
8361;SDS011;4218;48.326;14.304;2023-07-02T02:49:37;22.63;;;21.63;;
8361;SDS011;4218;48.326;14.304;2023-07-02T02:52:04;23.00;;;22.00;;
8361;SDS011;4218;48.326;14.304;2023-07-02T02:54:29;21.53;;;20.63;;
8361;SDS011;4218;48.326;14.304;2023-07-02T02:56:54;26.90;;;25.70;;
8361;SDS011;4218;48.326;14.304;2023-07-02T02:59:20;34.23;;;32.73;;
8361;SDS011;4218;48.326;14.304;2023-07-02T03:01:45;31.40;;;29.83;;
8361;SDS011;4218;48.326;14.304;2023-07-02T03:04:11;23.53;;;22.47;;
8361;SDS011;4218;48.326;14.304;2023-07-02T03:06:36;24.13;;;22.97;;
8361;SDS011;4218;48.326;14.304;2023-07-02T03:09:01;37.27;;;35.57;;
8361;SDS011;4218;48.326;14.304;2023-07-02T03:11:27;41.43;;;39.53;;
8361;SDS011;4218;48.326;14.304;2023-07-02T03:13:52;27.17;;;25.93;;
8361;SDS011;4218;48.326;14.304;2023-07-02T03:16:17;31.40;;;29.97;;
8361;SDS011;4218;48.326;14.304;2023-07-02T03:18:42;30.50;;;29.13;;
8361;SDS011;4218;48.326;14.304;2023-07-02T03:21:08;43.53;;;41.57;;
8361;SDS011;4218;48.326;14.304;2023-07-02T03:23:33;36.43;;;34.80;;
8361;SDS011;4218;48.326;14.304;2023-07-02T03:25:58;55.47;;;52.97;;
8361;SDS011;4218;48.326;14.304;2023-07-02T03:28:24;52.67;;;50.33;;
8361;SDS011;4218;48.326;14.304;2023-07-02T03:30:49;63.27;;;60.37;;
8361;SDS011;4218;48.326;14.304;2023-07-02T03:33:14;57.17;;;54.40;;
8361;SDS011;4218;48.326;14.304;2023-07-02T03:35:39;37.00;;;35.30;;
8361;SDS011;4218;48.326;14.304;2023-07-02T03:38:05;50.80;;;48.27;;
8361;SDS011;4218;48.326;14.304;2023-07-02T03:40:33;83.83;;;79.87;;
8361;SDS011;4218;48.326;14.304;2023-07-02T03:42:58;119.73;;;114.07;;
8361;SDS011;4218;48.326;14.304;2023-07-02T03:45:23;85.63;;;81.73;;
8361;SDS011;4218;48.326;14.304;2023-07-02T03:47:49;78.13;;;74.53;;
8361;SDS011;4218;48.326;14.304;2023-07-02T03:50:14;129.10;;;123.20;;
8361;SDS011;4218;48.326;14.304;2023-07-02T03:52:39;161.07;;;153.07;;
8361;SDS011;4218;48.326;14.304;2023-07-02T03:55:04;139.23;;;132.80;;
8361;SDS011;4218;48.326;14.304;2023-07-02T03:57:30;143.20;;;136.47;;
8361;SDS011;4218;48.326;14.304;2023-07-02T03:59:55;125.53;;;119.63;;
8361;SDS011;4218;48.326;14.304;2023-07-02T04:02:20;178.90;;;170.13;;
8361;SDS011;4218;48.326;14.304;2023-07-02T04:04:46;195.07;;;185.57;;
8361;SDS011;4218;48.326;14.304;2023-07-02T04:07:11;169.87;;;161.47;;
8361;SDS011;4218;48.326;14.304;2023-07-02T04:09:36;86.00;;;82.00;;
8361;SDS011;4218;48.326;14.304;2023-07-02T04:12:01;84.63;;;80.70;;
8361;SDS011;4218;48.326;14.304;2023-07-02T04:14:26;47.80;;;45.57;;
8361;SDS011;4218;48.326;14.304;2023-07-02T04:16:52;65.53;;;62.50;;
8361;SDS011;4218;48.326;14.304;2023-07-02T04:19:18;81.57;;;77.77;;
8361;SDS011;4218;48.326;14.304;2023-07-02T04:21:44;73.80;;;70.17;;
8361;SDS011;4218;48.326;14.304;2023-07-02T04:24:09;67.07;;;63.93;;
8361;SDS011;4218;48.326;14.304;2023-07-02T04:26:34;89.73;;;85.47;;
8361;SDS011;4218;48.326;14.304;2023-07-02T04:29:01;108.13;;;103.17;;
8361;SDS011;4218;48.326;14.304;2023-07-02T04:31:27;75.70;;;72.17;;
8361;SDS011;4218;48.326;14.304;2023-07-02T04:33:52;88.77;;;84.60;;
8361;SDS011;4218;48.326;14.304;2023-07-02T04:36:17;131.00;;;124.07;;
8361;SDS011;4218;48.326;14.304;2023-07-02T04:38:43;166.07;;;157.60;;
8361;SDS011;4218;48.326;14.304;2023-07-02T04:41:08;179.67;;;170.93;;
8361;SDS011;4218;48.326;14.304;2023-07-02T04:43:35;149.97;;;142.53;;
8361;SDS011;4218;48.326;14.304;2023-07-02T04:46:02;135.87;;;129.37;;
8361;SDS011;4218;48.326;14.304;2023-07-02T04:48:27;87.70;;;83.60;;
8361;SDS011;4218;48.326;14.304;2023-07-02T04:50:52;73.37;;;69.83;;
8361;SDS011;4218;48.326;14.304;2023-07-02T04:53:17;61.47;;;58.53;;
8361;SDS011;4218;48.326;14.304;2023-07-02T04:55:46;61.07;;;58.27;;
8361;SDS011;4218;48.326;14.304;2023-07-02T04:58:11;54.67;;;52.13;;
8361;SDS011;4218;48.326;14.304;2023-07-02T05:00:36;34.63;;;33.00;;
8361;SDS011;4218;48.326;14.304;2023-07-02T05:03:01;61.37;;;58.47;;
8361;SDS011;4218;48.326;14.304;2023-07-02T05:05:26;75.73;;;72.13;;
8361;SDS011;4218;48.326;14.304;2023-07-02T05:07:53;82.47;;;78.70;;
8361;SDS011;4218;48.326;14.304;2023-07-02T05:10:19;37.40;;;35.60;;
8361;SDS011;4218;48.326;14.304;2023-07-02T05:12:44;33.03;;;31.40;;
8361;SDS011;4218;48.326;14.304;2023-07-02T05:15:09;41.07;;;39.07;;
8361;SDS011;4218;48.326;14.304;2023-07-02T05:17:36;34.27;;;32.73;;
8361;SDS011;4218;48.326;14.304;2023-07-02T05:20:02;45.23;;;43.13;;
8361;SDS011;4218;48.326;14.304;2023-07-02T05:22:28;46.60;;;44.50;;
8361;SDS011;4218;48.326;14.304;2023-07-02T05:24:53;33.13;;;31.60;;
8361;SDS011;4218;48.326;14.304;2023-07-02T05:27:18;28.77;;;27.43;;
8361;SDS011;4218;48.326;14.304;2023-07-02T05:29:44;34.50;;;32.93;;
8361;SDS011;4218;48.326;14.304;2023-07-02T05:32:09;29.90;;;28.57;;
8361;SDS011;4218;48.326;14.304;2023-07-02T05:34:34;38.37;;;36.60;;
8361;SDS011;4218;48.326;14.304;2023-07-02T05:36:59;23.63;;;22.53;;
8361;SDS011;4218;48.326;14.304;2023-07-02T05:39:25;37.03;;;35.37;;
8361;SDS011;4218;48.326;14.304;2023-07-02T05:41:50;71.30;;;68.10;;
8361;SDS011;4218;48.326;14.304;2023-07-02T05:44:15;51.60;;;49.20;;
8361;SDS011;4218;48.326;14.304;2023-07-02T05:46:41;23.63;;;22.57;;
8361;SDS011;4218;48.326;14.304;2023-07-02T05:49:06;24.30;;;23.20;;
8361;SDS011;4218;48.326;14.304;2023-07-02T05:51:31;28.53;;;27.17;;
8361;SDS011;4218;48.326;14.304;2023-07-02T05:53:57;21.83;;;20.87;;
8361;SDS011;4218;48.326;14.304;2023-07-02T05:56:22;21.17;;;20.17;;
8361;SDS011;4218;48.326;14.304;2023-07-02T05:58:48;39.23;;;37.43;;
8361;SDS011;4218;48.326;14.304;2023-07-02T06:01:14;32.83;;;31.30;;
8361;SDS011;4218;48.326;14.304;2023-07-02T06:03:40;72.13;;;68.87;;
8361;SDS011;4218;48.326;14.304;2023-07-02T06:06:05;29.60;;;28.30;;
8361;SDS011;4218;48.326;14.304;2023-07-02T06:08:30;27.10;;;25.83;;
8361;SDS011;4218;48.326;14.304;2023-07-02T06:10:56;33.57;;;32.03;;
8361;SDS011;4218;48.326;14.304;2023-07-02T06:13:21;44.63;;;42.67;;
8361;SDS011;4218;48.326;14.304;2023-07-02T06:15:46;27.53;;;26.33;;
8361;SDS011;4218;48.326;14.304;2023-07-02T06:18:12;30.27;;;28.73;;
8361;SDS011;4218;48.326;14.304;2023-07-02T06:20:37;78.40;;;74.80;;
8361;SDS011;4218;48.326;14.304;2023-07-02T06:23:02;42.07;;;40.13;;
8361;SDS011;4218;48.326;14.304;2023-07-02T06:25:27;39.67;;;37.90;;
8361;SDS011;4218;48.326;14.304;2023-07-02T06:27:53;41.93;;;40.03;;
8361;SDS011;4218;48.326;14.304;2023-07-02T06:30:21;25.53;;;24.40;;
8361;SDS011;4218;48.326;14.304;2023-07-02T06:32:46;29.77;;;28.43;;
8361;SDS011;4218;48.326;14.304;2023-07-02T06:35:11;37.27;;;35.47;;
8361;SDS011;4218;48.326;14.304;2023-07-02T06:37:36;31.20;;;29.80;;
8361;SDS011;4218;48.326;14.304;2023-07-02T06:40:02;27.80;;;26.20;;
8361;SDS011;4218;48.326;14.304;2023-07-02T06:42:28;34.83;;;33.27;;
8361;SDS011;4218;48.326;14.304;2023-07-02T06:44:53;45.17;;;43.13;;
8361;SDS011;4218;48.326;14.304;2023-07-02T06:47:18;25.90;;;24.70;;
8361;SDS011;4218;48.326;14.304;2023-07-02T06:49:44;28.07;;;26.87;;
8361;SDS011;4218;48.326;14.304;2023-07-02T06:52:09;37.73;;;35.93;;
8361;SDS011;4218;48.326;14.304;2023-07-02T06:54:35;37.20;;;35.50;;
8361;SDS011;4218;48.326;14.304;2023-07-02T06:57:01;30.27;;;28.97;;
8361;SDS011;4218;48.326;14.304;2023-07-02T06:59:26;25.87;;;24.70;;
8361;SDS011;4218;48.326;14.304;2023-07-02T07:01:51;24.77;;;23.67;;
8361;SDS011;4218;48.326;14.304;2023-07-02T07:04:17;25.90;;;24.77;;
8361;SDS011;4218;48.326;14.304;2023-07-02T07:06:42;38.77;;;37.07;;
8361;SDS011;4218;48.326;14.304;2023-07-02T07:09:08;52.53;;;50.13;;
8361;SDS011;4218;48.326;14.304;2023-07-02T07:11:33;31.93;;;30.47;;
8361;SDS011;4218;48.326;14.304;2023-07-02T07:13:58;36.07;;;34.37;;
8361;SDS011;4218;48.326;14.304;2023-07-02T07:16:24;45.33;;;43.30;;
8361;SDS011;4218;48.326;14.304;2023-07-02T07:18:49;34.83;;;33.23;;
8361;SDS011;4218;48.326;14.304;2023-07-02T07:21:14;42.30;;;40.37;;
8361;SDS011;4218;48.326;14.304;2023-07-02T07:23:40;35.73;;;34.13;;
8361;SDS011;4218;48.326;14.304;2023-07-02T07:26:05;48.10;;;45.93;;
8361;SDS011;4218;48.326;14.304;2023-07-02T07:28:31;41.03;;;39.17;;
8361;SDS011;4218;48.326;14.304;2023-07-02T07:30:56;39.07;;;37.30;;
8361;SDS011;4218;48.326;14.304;2023-07-02T07:33:21;41.47;;;39.60;;
8361;SDS011;4218;48.326;14.304;2023-07-02T07:35:46;30.00;;;28.57;;
8361;SDS011;4218;48.326;14.304;2023-07-02T07:38:15;28.33;;;27.13;;
8361;SDS011;4218;48.326;14.304;2023-07-02T07:40:40;41.67;;;39.80;;
8361;SDS011;4218;48.326;14.304;2023-07-02T07:43:05;28.47;;;27.17;;
8361;SDS011;4218;48.326;14.304;2023-07-02T07:45:31;21.50;;;20.60;;
8361;SDS011;4218;48.326;14.304;2023-07-02T07:47:59;34.07;;;32.57;;
8361;SDS011;4218;48.326;14.304;2023-07-02T07:50:24;37.23;;;35.53;;
8361;SDS011;4218;48.326;14.304;2023-07-02T07:52:49;27.67;;;26.43;;
8361;SDS011;4218;48.326;14.304;2023-07-02T07:55:16;31.50;;;30.03;;
8361;SDS011;4218;48.326;14.304;2023-07-02T07:57:42;33.27;;;31.77;;
8361;SDS011;4218;48.326;14.304;2023-07-02T08:00:08;45.30;;;43.23;;
8361;SDS011;4218;48.326;14.304;2023-07-02T08:02:34;39.37;;;37.53;;
8361;SDS011;4218;48.326;14.304;2023-07-02T08:05:00;40.27;;;38.43;;
8361;SDS011;4218;48.326;14.304;2023-07-02T08:07:25;35.33;;;33.57;;
8361;SDS011;4218;48.326;14.304;2023-07-02T08:09:50;35.13;;;33.60;;
8361;SDS011;4218;48.326;14.304;2023-07-02T08:12:16;28.83;;;27.53;;
8361;SDS011;4218;48.326;14.304;2023-07-02T08:14:41;26.37;;;25.17;;
8361;SDS011;4218;48.326;14.304;2023-07-02T08:17:06;33.37;;;31.87;;
8361;SDS011;4218;48.326;14.304;2023-07-02T08:19:31;23.33;;;22.33;;
8361;SDS011;4218;48.326;14.304;2023-07-02T08:21:56;29.10;;;27.77;;
8361;SDS011;4218;48.326;14.304;2023-07-02T08:24:22;45.33;;;43.27;;
8361;SDS011;4218;48.326;14.304;2023-07-02T08:26:47;34.87;;;33.30;;
8361;SDS011;4218;48.326;14.304;2023-07-02T08:29:14;34.23;;;32.70;;
8361;SDS011;4218;48.326;14.304;2023-07-02T08:31:40;26.27;;;25.07;;
8361;SDS011;4218;48.326;14.304;2023-07-02T08:34:05;22.37;;;21.37;;
8361;SDS011;4218;48.326;14.304;2023-07-02T08:36:30;26.27;;;25.07;;
8361;SDS011;4218;48.326;14.304;2023-07-02T08:38:55;30.70;;;29.33;;
8361;SDS011;4218;48.326;14.304;2023-07-02T08:41:21;40.63;;;38.87;;
8361;SDS011;4218;48.326;14.304;2023-07-02T08:43:47;31.40;;;30.00;;
8361;SDS011;4218;48.326;14.304;2023-07-02T08:46:14;28.27;;;27.03;;
8361;SDS011;4218;48.326;14.304;2023-07-02T08:48:40;43.10;;;41.17;;
8361;SDS011;4218;48.326;14.304;2023-07-02T08:51:05;45.27;;;43.27;;
8361;SDS011;4218;48.326;14.304;2023-07-02T08:53:30;34.90;;;33.30;;
8361;SDS011;4218;48.326;14.304;2023-07-02T08:55:59;37.33;;;35.70;;
8361;SDS011;4218;48.326;14.304;2023-07-02T08:58:24;29.73;;;28.47;;
8361;SDS011;4218;48.326;14.304;2023-07-02T09:01:08;30.50;;;29.10;;
8361;SDS011;4218;48.326;14.304;2023-07-02T09:03:34;26.47;;;25.30;;
8361;SDS011;4218;48.326;14.304;2023-07-02T09:06:02;19.93;;;19.03;;
8361;SDS011;4218;48.326;14.304;2023-07-02T09:08:27;24.53;;;23.43;;
8361;SDS011;4218;48.326;14.304;2023-07-02T09:10:53;35.43;;;33.83;;
8361;SDS011;4218;48.326;14.304;2023-07-02T09:13:19;37.37;;;35.57;;
8361;SDS011;4218;48.326;14.304;2023-07-02T09:15:44;35.37;;;33.77;;
8361;SDS011;4218;48.326;14.304;2023-07-02T09:20:41;43.90;;;41.83;;
8361;SDS011;4218;48.326;14.304;2023-07-02T09:23:06;45.10;;;43.10;;
8361;SDS011;4218;48.326;14.304;2023-07-02T09:25:38;43.93;;;41.87;;
8361;SDS011;4218;48.326;14.304;2023-07-02T09:28:19;22.57;;;21.53;;
8361;SDS011;4218;48.326;14.304;2023-07-02T09:30:49;58.73;;;56.03;;
8361;SDS011;4218;48.326;14.304;2023-07-02T09:33:15;38.80;;;37.07;;
8361;SDS011;4218;48.326;14.304;2023-07-02T09:35:41;52.67;;;50.33;;
8361;SDS011;4218;48.326;14.304;2023-07-02T09:38:06;29.87;;;28.53;;
8361;SDS011;4218;48.326;14.304;2023-07-02T09:40:32;37.60;;;35.90;;
8361;SDS011;4218;48.326;14.304;2023-07-02T09:42:58;61.00;;;58.33;;
8361;SDS011;4218;48.326;14.304;2023-07-02T09:45:24;95.13;;;90.93;;
8361;SDS011;4218;48.326;14.304;2023-07-02T09:47:49;42.80;;;40.93;;
8361;SDS011;4218;48.326;14.304;2023-07-02T09:50:16;55.90;;;53.40;;
8361;SDS011;4218;48.326;14.304;2023-07-02T09:52:44;39.93;;;38.17;;
8361;SDS011;4218;48.326;14.304;2023-07-02T09:55:09;34.70;;;33.13;;
8361;SDS011;4218;48.326;14.304;2023-07-02T09:57:36;36.13;;;34.47;;
8361;SDS011;4218;48.326;14.304;2023-07-02T10:00:01;26.23;;;24.93;;
8361;SDS011;4218;48.326;14.304;2023-07-02T10:02:27;39.17;;;37.37;;
8361;SDS011;4218;48.326;14.304;2023-07-02T10:04:52;32.73;;;31.23;;
8361;SDS011;4218;48.326;14.304;2023-07-02T10:07:27;25.87;;;24.67;;
8361;SDS011;4218;48.326;14.304;2023-07-02T10:09:52;31.27;;;29.80;;
8361;SDS011;4218;48.326;14.304;2023-07-02T10:14:43;23.47;;;22.37;;
8361;SDS011;4218;48.326;14.304;2023-07-02T10:17:08;33.60;;;31.83;;
8361;SDS011;4218;48.326;14.304;2023-07-02T10:19:34;32.70;;;31.23;;
8361;SDS011;4218;48.326;14.304;2023-07-02T10:22:02;35.27;;;33.70;;
8361;SDS011;4218;48.326;14.304;2023-07-02T10:24:28;25.47;;;23.87;;
8361;SDS011;4218;48.326;14.304;2023-07-02T10:26:56;27.13;;;25.90;;
8361;SDS011;4218;48.326;14.304;2023-07-02T10:29:22;18.87;;;17.97;;
8361;SDS011;4218;48.326;14.304;2023-07-02T10:31:48;24.17;;;23.07;;
8361;SDS011;4218;48.326;14.304;2023-07-02T10:34:14;23.53;;;22.53;;
8361;SDS011;4218;48.326;14.304;2023-07-02T10:36:39;31.47;;;30.03;;
8361;SDS011;4218;48.326;14.304;2023-07-02T10:39:04;27.63;;;26.37;;
8361;SDS011;4218;48.326;14.304;2023-07-02T10:41:30;24.10;;;23.00;;
8361;SDS011;4218;48.326;14.304;2023-07-02T10:44:08;52.00;;;49.53;;
8361;SDS011;4218;48.326;14.304;2023-07-02T10:46:34;35.40;;;33.80;;
8361;SDS011;4218;48.326;14.304;2023-07-02T10:48:59;48.73;;;46.50;;
8361;SDS011;4218;48.326;14.304;2023-07-02T10:51:25;28.70;;;27.40;;
8361;SDS011;4218;48.326;14.304;2023-07-02T10:53:57;28.90;;;27.60;;
8361;SDS011;4218;48.326;14.304;2023-07-02T10:56:23;31.67;;;30.23;;
8361;SDS011;4218;48.326;14.304;2023-07-02T10:58:49;28.03;;;26.83;;
8361;SDS011;4218;48.326;14.304;2023-07-02T11:01:25;25.27;;;24.07;;
8361;SDS011;4218;48.326;14.304;2023-07-02T11:06:23;30.13;;;28.67;;
8361;SDS011;4218;48.326;14.304;2023-07-02T11:08:48;26.87;;;25.57;;
8361;SDS011;4218;48.326;14.304;2023-07-02T11:11:13;26.83;;;25.60;;
8361;SDS011;4218;48.326;14.304;2023-07-02T11:13:45;34.90;;;33.30;;
8361;SDS011;4218;48.326;14.304;2023-07-02T11:16:24;38.20;;;36.50;;
8361;SDS011;4218;48.326;14.304;2023-07-02T11:18:54;28.80;;;27.50;;
8361;SDS011;4218;48.326;14.304;2023-07-02T11:21:30;46.43;;;44.33;;
8361;SDS011;4218;48.326;14.304;2023-07-02T11:24:02;40.90;;;39.07;;
8361;SDS011;4218;48.326;14.304;2023-07-02T11:26:34;33.00;;;31.50;;
8361;SDS011;4218;48.326;14.304;2023-07-02T11:28:59;41.73;;;39.83;;
8361;SDS011;4218;48.326;14.304;2023-07-02T11:31:25;37.30;;;35.37;;
8361;SDS011;4218;48.326;14.304;2023-07-02T11:33:51;46.23;;;44.13;;
8361;SDS011;4218;48.326;14.304;2023-07-02T11:36:22;24.83;;;23.67;;
8361;SDS011;4218;48.326;14.304;2023-07-02T11:38:49;32.47;;;31.03;;
8361;SDS011;4218;48.326;14.304;2023-07-02T11:41:14;40.93;;;39.10;;
8361;SDS011;4218;48.326;14.304;2023-07-02T11:43:40;27.63;;;26.40;;
8361;SDS011;4218;48.326;14.304;2023-07-02T11:46:05;28.20;;;26.93;;
8361;SDS011;4218;48.326;14.304;2023-07-02T11:48:30;41.67;;;39.67;;
8361;SDS011;4218;48.326;14.304;2023-07-02T11:50:55;28.30;;;26.97;;
8361;SDS011;4218;48.326;14.304;2023-07-02T11:53:21;22.37;;;21.37;;
8361;SDS011;4218;48.326;14.304;2023-07-02T11:55:46;27.13;;;25.87;;
8361;SDS011;4218;48.326;14.304;2023-07-02T11:58:11;25.67;;;24.53;;
8361;SDS011;4218;48.326;14.304;2023-07-02T12:00:36;27.80;;;26.57;;
8361;SDS011;4218;48.326;14.304;2023-07-02T12:03:01;19.33;;;18.43;;
8361;SDS011;4218;48.326;14.304;2023-07-02T12:05:27;19.17;;;18.27;;
8361;SDS011;4218;48.326;14.304;2023-07-02T12:07:52;21.60;;;20.60;;
8361;SDS011;4218;48.326;14.304;2023-07-02T12:10:17;20.67;;;19.77;;
8361;SDS011;4218;48.326;14.304;2023-07-02T12:12:43;16.50;;;15.70;;
8361;SDS011;4218;48.326;14.304;2023-07-02T12:15:08;20.90;;;20.00;;
8361;SDS011;4218;48.326;14.304;2023-07-02T12:17:33;28.47;;;27.17;;
8361;SDS011;4218;48.326;14.304;2023-07-02T12:19:58;29.37;;;28.10;;
8361;SDS011;4218;48.326;14.304;2023-07-02T12:22:24;17.70;;;16.90;;
8361;SDS011;4218;48.326;14.304;2023-07-02T12:24:49;19.63;;;18.73;;
8361;SDS011;4218;48.326;14.304;2023-07-02T12:27:21;17.13;;;16.40;;
8361;SDS011;4218;48.326;14.304;2023-07-02T12:29:46;25.13;;;24.03;;
8361;SDS011;4218;48.326;14.304;2023-07-02T12:32:13;20.97;;;19.97;;
8361;SDS011;4218;48.326;14.304;2023-07-02T12:34:38;22.13;;;21.17;;
8361;SDS011;4218;48.326;14.304;2023-07-02T12:37:04;21.40;;;20.47;;
8361;SDS011;4218;48.326;14.304;2023-07-02T12:39:29;21.80;;;20.80;;
8361;SDS011;4218;48.326;14.304;2023-07-02T12:41:54;21.30;;;20.37;;
8361;SDS011;4218;48.326;14.304;2023-07-02T12:44:19;26.27;;;25.03;;
8361;SDS011;4218;48.326;14.304;2023-07-02T12:46:45;29.93;;;28.60;;
8361;SDS011;4218;48.326;14.304;2023-07-02T12:49:11;28.37;;;27.07;;
8361;SDS011;4218;48.326;14.304;2023-07-02T12:51:36;25.17;;;24.07;;
8361;SDS011;4218;48.326;14.304;2023-07-02T12:54:01;25.60;;;24.50;;
8361;SDS011;4218;48.326;14.304;2023-07-02T12:56:27;39.17;;;37.40;;
8361;SDS011;4218;48.326;14.304;2023-07-02T12:58:52;39.23;;;37.50;;
8361;SDS011;4218;48.326;14.304;2023-07-02T13:01:17;44.53;;;42.53;;
8361;SDS011;4218;48.326;14.304;2023-07-02T13:03:46;39.80;;;37.97;;
8361;SDS011;4218;48.326;14.304;2023-07-02T13:06:12;25.67;;;24.53;;
8361;SDS011;4218;48.326;14.304;2023-07-02T13:08:37;39.30;;;37.47;;
8361;SDS011;4218;48.326;14.304;2023-07-02T13:11:02;33.70;;;32.20;;
8361;SDS011;4218;48.326;14.304;2023-07-02T13:13:28;44.37;;;42.40;;
8361;SDS011;4218;48.326;14.304;2023-07-02T13:15:53;34.47;;;32.93;;
8361;SDS011;4218;48.326;14.304;2023-07-02T13:18:18;25.03;;;23.93;;
8361;SDS011;4218;48.326;14.304;2023-07-02T13:20:43;25.90;;;24.80;;
8361;SDS011;4218;48.326;14.304;2023-07-02T13:23:09;25.83;;;24.63;;
8361;SDS011;4218;48.326;14.304;2023-07-02T13:25:34;27.87;;;26.63;;
8361;SDS011;4218;48.326;14.304;2023-07-02T13:27:59;30.20;;;28.80;;
8361;SDS011;4218;48.326;14.304;2023-07-02T13:30:25;23.03;;;22.03;;
8361;SDS011;4218;48.326;14.304;2023-07-02T13:32:52;32.47;;;31.03;;
8361;SDS011;4218;48.326;14.304;2023-07-02T13:35:17;32.30;;;30.80;;
8361;SDS011;4218;48.326;14.304;2023-07-02T13:37:42;28.70;;;27.33;;
8361;SDS011;4218;48.326;14.304;2023-07-02T13:40:08;37.80;;;36.10;;
8361;SDS011;4218;48.326;14.304;2023-07-02T13:42:37;36.67;;;34.97;;
8361;SDS011;4218;48.326;14.304;2023-07-02T13:45:02;26.23;;;25.07;;
8361;SDS011;4218;48.326;14.304;2023-07-02T13:47:27;24.60;;;23.50;;
8361;SDS011;4218;48.326;14.304;2023-07-02T13:49:53;61.40;;;58.73;;
8361;SDS011;4218;48.326;14.304;2023-07-02T13:52:18;23.67;;;22.57;;
8361;SDS011;4218;48.326;14.304;2023-07-02T13:54:44;31.10;;;29.70;;
8361;SDS011;4218;48.326;14.304;2023-07-02T13:57:09;28.30;;;26.97;;
8361;SDS011;4218;48.326;14.304;2023-07-02T13:59:34;48.77;;;46.60;;
8361;SDS011;4218;48.326;14.304;2023-07-02T14:01:59;24.80;;;23.63;;
8361;SDS011;4218;48.326;14.304;2023-07-02T14:04:24;23.23;;;22.13;;
8361;SDS011;4218;48.326;14.304;2023-07-02T14:06:50;43.20;;;41.23;;
8361;SDS011;4218;48.326;14.304;2023-07-02T14:09:15;63.40;;;60.53;;
8361;SDS011;4218;48.326;14.304;2023-07-02T14:11:41;41.93;;;40.00;;
8361;SDS011;4218;48.326;14.304;2023-07-02T14:14:06;40.53;;;38.70;;
8361;SDS011;4218;48.326;14.304;2023-07-02T14:16:32;38.70;;;36.87;;
8361;SDS011;4218;48.326;14.304;2023-07-02T14:18:57;32.43;;;30.90;;
8361;SDS011;4218;48.326;14.304;2023-07-02T14:21:22;34.73;;;33.13;;
8361;SDS011;4218;48.326;14.304;2023-07-02T14:23:47;38.37;;;36.67;;
8361;SDS011;4218;48.326;14.304;2023-07-02T14:26:12;52.67;;;50.30;;
8361;SDS011;4218;48.326;14.304;2023-07-02T14:28:38;38.37;;;36.47;;
8361;SDS011;4218;48.326;14.304;2023-07-02T14:31:04;29.80;;;28.40;;
8361;SDS011;4218;48.326;14.304;2023-07-02T14:33:29;40.80;;;38.93;;
8361;SDS011;4218;48.326;14.304;2023-07-02T14:35:55;31.90;;;30.40;;